Time;durP1;ratioP1;P1;durP2;ratioP2;P2;SDS_P1;SDS_P2;PMS_P1;PMS_P2;Temp;Humidity;BMP_temperature;BMP_pressure;BME280_temperature;BME280_humidity;BME280_pressure;Samples;Min_cycle;Max_cycle;Signal;HPM_P1;HPM_P2
2024/02/19 00:01:35;;;;;;;;;;;21.90;36.30;;;;;;5073434;28;20003;-59
2024/02/19 00:04:04;;;;;;;;;;;21.90;36.30;;;;;;5073381;28;19946;-59
2024/02/19 00:06:31;;;;;;;;;;;21.90;36.30;;;;;;5073084;28;20308;-59
2024/02/19 00:08:58;;;;;;;;;;;21.90;36.30;;;;;;5073348;28;19976;-59
2024/02/19 00:11:25;;;;;;;;;;;21.90;36.30;;;;;;5073240;28;19924;-59
2024/02/19 00:13:52;;;;;;;;;;;21.90;36.30;;;;;;5072917;28;20388;-59
2024/02/19 00:16:19;;;;;;;;;;;21.90;36.20;;;;;;5072882;28;19925;-59
2024/02/19 00:18:46;;;;;;;;;;;21.90;36.20;;;;;;5073226;28;19924;-59
2024/02/19 00:21:16;;;;;;;;;;;21.90;36.20;;;;;;5073252;28;19928;-59
2024/02/19 00:23:42;;;;;;;;;;;21.90;36.20;;;;;;5073276;28;19930;-60
2024/02/19 00:26:09;;;;;;;;;;;21.90;36.20;;;;;;5073207;28;19928;-59
2024/02/19 00:28:36;;;;;;;;;;;21.90;36.20;;;;;;5073029;28;19928;-59
2024/02/19 00:31:03;;;;;;;;;;;21.90;36.30;;;;;;5073104;28;20336;-59
2024/02/19 00:33:31;;;;;;;;;;;21.90;36.30;;;;;;5072870;28;19935;-59
2024/02/19 00:35:58;;;;;;;;;;;21.90;36.30;;;;;;5073036;28;19978;-59
2024/02/19 00:38:25;;;;;;;;;;;21.80;36.20;;;;;;5072250;28;19925;-59
2024/02/19 00:40:52;;;;;;;;;;;21.80;36.20;;;;;;5073146;28;19924;-59
2024/02/19 00:43:19;;;;;;;;;;;21.80;36.20;;;;;;5072967;28;19978;-59
2024/02/19 00:45:46;;;;;;;;;;;21.80;36.20;;;;;;5073178;28;20293;-59
2024/02/19 00:48:13;;;;;;;;;;;21.80;36.20;;;;;;5073082;28;19934;-59
2024/02/19 00:50:41;;;;;;;;;;;21.80;36.80;;;;;;5072722;28;19934;-59
2024/02/19 00:53:08;;;;;;;;;;;21.80;36.20;;;;;;5072870;28;19932;-59
2024/02/19 00:55:35;;;;;;;;;;;21.80;36.20;;;;;;5071901;28;19924;-59
2024/02/19 00:58:02;;;;;;;;;;;21.80;36.30;;;;;;5073109;28;20023;-59
2024/02/19 01:00:29;;;;;;;;;;;21.80;36.20;;;;;;5072924;28;20344;-59
2024/02/19 01:02:56;;;;;;;;;;;21.80;36.20;;;;;;5072708;28;19979;-59
2024/02/19 01:05:24;;;;;;;;;;;21.80;36.30;;;;;;5074057;28;20326;-59
2024/02/19 01:07:51;;;;;;;;;;;21.80;36.30;;;;;;5076321;28;19947;-59
2024/02/19 01:10:19;;;;;;;;;;;21.80;36.30;;;;;;5076258;28;19924;-59
2024/02/19 01:12:46;;;;;;;;;;;21.80;36.20;;;;;;5076077;28;19924;-59
2024/02/19 01:15:13;;;;;;;;;;;21.80;36.20;;;;;;5076339;28;19932;-58
2024/02/19 01:17:40;;;;;;;;;;;21.80;36.30;;;;;;5076268;28;20086;-59
2024/02/19 01:20:07;;;;;;;;;;;21.80;36.20;;;;;;5076006;28;19924;-59
2024/02/19 01:22:34;;;;;;;;;;;21.90;36.30;;;;;;5076308;28;19979;-58
2024/02/19 01:25:01;;;;;;;;;;;21.80;36.20;;;;;;5075979;28;19978;-59
2024/02/19 01:27:28;;;;;;;;;;;21.80;36.20;;;;;;5075976;28;20432;-59
2024/02/19 01:29:55;;;;;;;;;;;21.80;36.20;;;;;;5076165;28;19947;-59
2024/02/19 01:32:22;;;;;;;;;;;21.80;36.20;;;;;;5074622;28;20298;-59
2024/02/19 01:34:49;;;;;;;;;;;21.80;36.20;;;;;;5074540;28;20397;-59
2024/02/19 01:37:16;;;;;;;;;;;21.80;36.20;;;;;;5076167;28;19925;-58
2024/02/19 01:39:43;;;;;;;;;;;21.80;36.20;;;;;;5074979;28;19972;-59
2024/02/19 01:42:10;;;;;;;;;;;21.80;36.30;;;;;;5075808;28;19925;-59
2024/02/19 01:44:37;;;;;;;;;;;21.80;36.30;;;;;;5075823;28;20023;-58
2024/02/19 01:47:04;;;;;;;;;;;21.80;36.30;;;;;;5075638;28;20019;-59
2024/02/19 01:49:31;;;;;;;;;;;21.80;36.20;;;;;;5075386;28;19928;-58
2024/02/19 01:51:59;;;;;;;;;;;21.80;36.20;;;;;;5075626;28;19924;-58
2024/02/19 01:54:26;;;;;;;;;;;21.80;36.30;;;;;;5075713;28;19946;-59
2024/02/19 01:56:53;;;;;;;;;;;21.80;36.30;;;;;;5075729;28;20072;-59
2024/02/19 01:59:21;;;;;;;;;;;21.80;36.30;;;;;;5075684;28;19924;-59
2024/02/19 02:01:48;;;;;;;;;;;21.80;36.30;;;;;;5075455;28;20468;-59
2024/02/19 02:04:18;;;;;;;;;;;21.80;36.30;;;;;;5075645;28;19924;-58
2024/02/19 02:06:45;;;;;;;;;;;21.80;36.30;;;;;;5075355;28;20392;-59
2024/02/19 02:09:12;;;;;;;;;;;21.80;36.20;;;;;;5075207;28;19925;-59
2024/02/19 02:11:39;;;;;;;;;;;21.80;36.20;;;;;;5075146;28;19977;-58
2024/02/19 02:14:06;;;;;;;;;;;21.80;36.20;;;;;;5075502;28;20383;-59
2024/02/19 02:16:33;;;;;;;;;;;21.80;36.30;;;;;;5073818;28;20461;-59
2024/02/19 02:19:00;;;;;;;;;;;21.80;36.30;;;;;;5074929;28;20400;-59
2024/02/19 02:21:27;;;;;;;;;;;21.80;36.30;;;;;;5074948;28;19925;-59
2024/02/19 02:23:54;;;;;;;;;;;21.80;36.30;;;;;;5074993;28;19971;-58
2024/02/19 02:26:21;;;;;;;;;;;21.80;36.30;;;;;;5074638;28;19972;-59
2024/02/19 02:28:48;;;;;;;;;;;21.80;36.20;;;;;;5075112;28;19971;-58
2024/02/19 02:31:15;;;;;;;;;;;21.80;36.20;;;;;;5074677;28;20404;-59
2024/02/19 02:33:42;;;;;;;;;;;21.80;36.20;;;;;;5075055;28;19924;-58
2024/02/19 02:36:12;;;;;;;;;;;21.80;36.20;;;;;;5074712;28;19924;-59
2024/02/19 02:38:40;;;;;;;;;;;21.80;36.20;;;;;;5074595;28;19931;-58
2024/02/19 02:41:07;;;;;;;;;;;21.80;36.20;;;;;;5074404;28;20378;-59
2024/02/19 02:43:33;;;;;;;;;;;21.80;36.20;;;;;;5074499;28;19931;-58
2024/02/19 02:46:01;;;;;;;;;;;21.80;36.20;;;;;;5074478;28;19928;-58
2024/02/19 02:48:28;;;;;;;;;;;21.80;36.20;;;;;;5074296;28;19924;-58
2024/02/19 02:50:55;;;;;;;;;;;21.80;36.20;;;;;;5074527;28;19925;-59
2024/02/19 02:53:23;;;;;;;;;;;21.80;36.30;;;;;;5074452;28;19977;-58
2024/02/19 02:55:50;;;;;;;;;;;21.80;36.30;;;;;;5074169;28;19924;-59
2024/02/19 02:58:17;;;;;;;;;;;21.80;36.30;;;;;;5074305;28;19925;-59
2024/02/19 03:00:44;;;;;;;;;;;21.80;36.30;;;;;;5074516;28;19931;-58
2024/02/19 03:03:12;;;;;;;;;;;21.80;36.30;;;;;;5074339;28;19974;-59
2024/02/19 03:05:39;;;;;;;;;;;21.80;36.20;;;;;;5074368;28;19924;-59
2024/02/19 03:08:06;;;;;;;;;;;21.80;36.20;;;;;;5074413;28;20295;-58
2024/02/19 03:10:34;;;;;;;;;;;21.80;36.20;;;;;;5074428;28;19978;-58
2024/02/19 03:13:01;;;;;;;;;;;21.80;36.30;;;;;;5073030;28;19929;-58
2024/02/19 03:15:28;;;;;;;;;;;21.70;36.20;;;;;;5074145;28;20364;-58
2024/02/19 03:17:57;;;;;;;;;;;21.80;36.30;;;;;;5073907;28;20005;-58
2024/02/19 03:20:25;;;;;;;;;;;21.80;36.30;;;;;;5074132;28;20340;-58
2024/02/19 03:22:53;;;;;;;;;;;21.70;36.20;;;;;;5073619;28;20419;-59
2024/02/19 03:25:20;;;;;;;;;;;21.80;36.20;;;;;;5074021;28;20352;-59
2024/02/19 03:27:47;;;;;;;;;;;21.80;36.20;;;;;;5072704;28;19925;-59
2024/02/19 03:30:14;;;;;;;;;;;21.80;36.20;;;;;;5072846;28;19924;-59
2024/02/19 03:32:41;;;;;;;;;;;21.80;36.30;;;;;;5073653;28;19924;-59
2024/02/19 03:35:09;;;;;;;;;;;21.80;36.20;;;;;;5073249;28;19929;-58
2024/02/19 03:37:36;;;;;;;;;;;21.80;36.20;;;;;;5072869;28;19975;-58
2024/02/19 03:40:06;;;;;;;;;;;21.80;36.20;;;;;;5073877;28;19930;-58
2024/02/19 03:42:34;;;;;;;;;;;21.80;36.20;;;;;;5073616;28;19924;-59
2024/02/19 03:45:01;;;;;;;;;;;21.80;36.20;;;;;;5073651;28;19928;-59
2024/02/19 03:47:28;;;;;;;;;;;21.80;36.20;;;;;;5073633;28;19970;-59
2024/02/19 03:49:55;;;;;;;;;;;21.80;36.20;;;;;;5073385;28;19971;-59
2024/02/19 03:52:22;;;;;;;;;;;21.70;36.20;;;;;;5073333;28;19970;-59
2024/02/19 03:54:49;;;;;;;;;;;21.70;36.20;;;;;;5073659;28;19925;-59
2024/02/19 03:57:16;;;;;;;;;;;21.70;36.30;;;;;;5073556;28;19976;-61
2024/02/19 03:59:43;;;;;;;;;;;21.70;36.20;;;;;;5073600;28;19978;-59
2024/02/19 04:02:10;;;;;;;;;;;21.70;36.30;;;;;;5072008;28;19931;-62
2024/02/19 04:04:37;;;;;;;;;;;21.70;36.30;;;;;;5073228;28;20430;-59
2024/02/19 04:07:05;;;;;;;;;;;21.70;36.30;;;;;;5073317;28;19924;-60
2024/02/19 04:09:34;;;;;;;;;;;21.70;36.30;;;;;;5073479;28;20388;-59
2024/02/19 04:12:03;;;;;;;;;;;21.70;36.30;;;;;;5073400;28;19924;-60
2024/02/19 04:14:30;;;;;;;;;;;21.70;36.30;;;;;;5073233;28;19924;-59
2024/02/19 04:16:57;;;;;;;;;;;21.70;36.30;;;;;;5073541;28;19971;-60
2024/02/19 04:19:24;;;;;;;;;;;21.70;36.30;;;;;;5073064;28;20373;-62
2024/02/19 04:21:51;;;;;;;;;;;21.70;36.30;;;;;;5073017;28;20377;-59
2024/02/19 04:24:18;;;;;;;;;;;21.70;36.30;;;;;;5072937;28;19930;-59
2024/02/19 04:26:45;;;;;;;;;;;21.70;36.30;;;;;;5073399;28;20011;-58
2024/02/19 04:29:12;;;;;;;;;;;21.70;36.30;;;;;;5073079;28;19924;-59
2024/02/19 04:31:41;;;;;;;;;;;21.70;36.30;;;;;;5073356;28;19964;-59
2024/02/19 04:34:08;;;;;;;;;;;21.70;36.30;;;;;;5073349;28;20003;-59
2024/02/19 04:36:35;;;;;;;;;;;21.70;36.30;;;;;;5068639;28;19929;-59
2024/02/19 04:39:02;;;;;;;;;;;21.70;36.30;;;;;;5071317;28;19925;-59
2024/02/19 04:41:29;;;;;;;;;;;21.70;36.00;;;;;;5076801;28;20387;-59
2024/02/19 04:43:56;;;;;;;;;;;21.70;35.90;;;;;;5077010;28;19928;-58
2024/02/19 04:46:23;;;;;;;;;;;21.70;35.70;;;;;;5075025;28;19930;-58
2024/02/19 04:48:50;;;;;;;;;;;21.70;36.20;;;;;;5076759;28;19943;-58
2024/02/19 04:51:17;;;;;;;;;;;21.70;35.50;;;;;;5076493;28;20293;-59
2024/02/19 04:53:44;;;;;;;;;;;21.70;35.40;;;;;;5109437;28;19978;-59
2024/02/19 04:56:14;;;;;;;;;;;21.80;35.40;;;;;;5076450;28;19928;-59
2024/02/19 04:58:41;;;;;;;;;;;21.80;35.40;;;;;;5076334;28;19932;-58
2024/02/19 05:01:08;;;;;;;;;;;21.70;35.20;;;;;;5076305;28;20007;-59
2024/02/19 05:03:35;;;;;;;;;;;21.80;35.20;;;;;;5075173;28;19980;-59
2024/02/19 05:06:02;;;;;;;;;;;21.80;35.20;;;;;;5076595;28;19929;-59
2024/02/19 05:08:30;;;;;;;;;;;21.80;35.10;;;;;;5076553;28;19931;-59
2024/02/19 05:10:56;;;;;;;;;;;21.80;35.00;;;;;;5076324;28;20349;-58
2024/02/19 05:13:24;;;;;;;;;;;21.80;35.00;;;;;;5075923;28;19925;-58
2024/02/19 05:15:51;;;;;;;;;;;21.80;34.90;;;;;;5076374;28;20024;-58
2024/02/19 05:18:19;;;;;;;;;;;21.80;34.80;;;;;;5073579;28;19971;-58
2024/02/19 05:20:46;;;;;;;;;;;21.80;34.80;;;;;;5074147;28;19924;-59
2024/02/19 05:23:13;;;;;;;;;;;21.80;34.80;;;;;;5075806;28;19929;-58
2024/02/19 05:25:40;;;;;;;;;;;21.80;34.70;;;;;;5073104;28;19968;-59
2024/02/19 05:28:07;;;;;;;;;;;21.80;34.70;;;;;;5076344;28;20378;-59
2024/02/19 05:30:34;;;;;;;;;;;21.80;34.60;;;;;;5076034;28;19928;-59
2024/02/19 05:33:01;;;;;;;;;;;21.80;34.60;;;;;;5075933;28;20011;-58
2024/02/19 05:35:28;;;;;;;;;;;21.80;34.60;;;;;;5073731;28;19939;-59
2024/02/19 05:37:55;;;;;;;;;;;21.80;34.50;;;;;;5078381;28;19934;-58
2024/02/19 05:40:22;;;;;;;;;;;21.80;34.50;;;;;;5074858;28;20308;-59
2024/02/19 05:42:49;;;;;;;;;;;21.80;34.50;;;;;;5075453;28;20014;-58
2024/02/19 05:45:16;;;;;;;;;;;21.80;34.50;;;;;;5098679;28;20007;-58
2024/02/19 05:47:43;;;;;;;;;;;21.80;34.50;;;;;;5072458;28;19925;-59
2024/02/19 05:50:10;;;;;;;;;;;21.70;34.50;;;;;;5073347;28;19924;-59
2024/02/19 05:52:37;;;;;;;;;;;21.80;34.50;;;;;;5075109;28;19929;-59
2024/02/19 05:55:05;;;;;;;;;;;21.70;34.40;;;;;;5075661;28;20350;-58
2024/02/19 05:57:31;;;;;;;;;;;21.70;34.40;;;;;;5075314;28;19929;-58
2024/02/19 05:59:58;;;;;;;;;;;21.80;34.40;;;;;;5072037;28;19925;-59
2024/02/19 06:02:26;;;;;;;;;;;21.80;34.30;;;;;;5077820;28;19924;-59
2024/02/19 06:04:53;;;;;;;;;;;21.80;34.30;;;;;;5054801;28;19925;-58
2024/02/19 06:07:20;;;;;;;;;;;21.80;34.20;;;;;;5062881;28;19924;-59
2024/02/19 06:09:47;;;;;;;;;;;21.80;34.20;;;;;;5074309;28;19924;-59
2024/02/19 06:12:14;;;;;;;;;;;21.80;34.20;;;;;;5072717;28;20292;-60
2024/02/19 06:14:41;;;;;;;;;;;21.80;34.10;;;;;;5071744;28;19975;-60
2024/02/19 06:17:09;;;;;;;;;;;21.90;34.10;;;;;;5073766;28;19928;-59
2024/02/19 06:19:37;;;;;;;;;;;21.90;34.10;;;;;;5071907;28;19924;-59
2024/02/19 06:22:08;;;;;;;;;;;21.90;34.10;;;;;;5059141;28;20406;-59
2024/02/19 06:24:35;;;;;;;;;;;21.90;34.20;;;;;;5069327;28;19979;-58
2024/02/19 06:27:02;;;;;;;;;;;21.90;34.30;;;;;;5069910;28;19928;-60
2024/02/19 06:29:29;;;;;;;;;;;21.90;34.40;;;;;;5097657;28;19978;-59
2024/02/19 06:31:56;;;;;;;;;;;22.00;34.50;;;;;;5058444;28;19928;-59
2024/02/19 06:34:23;;;;;;;;;;;22.00;34.50;;;;;;5060839;28;19925;-60
2024/02/19 06:36:50;;;;;;;;;;;22.00;34.60;;;;;;5064304;28;19928;-61
2024/02/19 06:39:17;;;;;;;;;;;22.00;35.20;;;;;;5076166;28;20289;-59
2024/02/19 06:41:44;;;;;;;;;;;22.10;35.40;;;;;;5065779;28;20430;-58
2024/02/19 06:44:11;;;;;;;;;;;22.10;35.40;;;;;;5066222;28;19930;-58
2024/02/19 06:46:38;;;;;;;;;;;22.20;35.40;;;;;;5063743;28;20458;-58
2024/02/19 06:49:05;;;;;;;;;;;22.20;36.00;;;;;;5062467;28;20086;-58
2024/02/19 06:51:32;;;;;;;;;;;22.30;35.30;;;;;;5068241;28;19932;-59
2024/02/19 06:53:59;;;;;;;;;;;22.30;35.30;;;;;;5068232;28;19966;-58
2024/02/19 06:56:26;;;;;;;;;;;22.40;35.20;;;;;;5067280;28;19934;-57
2024/02/19 06:58:53;;;;;;;;;;;22.40;34.80;;;;;;5063651;28;19925;-59
2024/02/19 07:01:20;;;;;;;;;;;22.40;34.90;;;;;;5061608;28;20019;-58
2024/02/19 07:03:48;;;;;;;;;;;22.50;35.10;;;;;;5058248;28;19928;-59
2024/02/19 07:06:15;;;;;;;;;;;22.50;35.30;;;;;;5055829;28;19939;-58
2024/02/19 07:08:42;;;;;;;;;;;22.50;35.60;;;;;;5056982;28;19932;-55
2024/02/19 07:11:09;;;;;;;;;;;22.50;35.50;;;;;;5058131;28;19968;-58
2024/02/19 07:13:36;;;;;;;;;;;22.60;35.30;;;;;;5060028;28;19928;-57
2024/02/19 07:16:03;;;;;;;;;;;22.60;35.10;;;;;;5056311;28;20067;-58
2024/02/19 07:18:30;;;;;;;;;;;22.60;35.00;;;;;;5051813;28;19932;-57
2024/02/19 07:20:58;;;;;;;;;;;22.60;35.00;;;;;;5051824;28;19985;-58
2024/02/19 07:23:25;;;;;;;;;;;22.60;34.90;;;;;;5055863;28;19964;-59
2024/02/19 07:25:52;;;;;;;;;;;22.70;34.80;;;;;;5061526;28;19932;-59
2024/02/19 07:28:22;;;;;;;;;;;22.70;34.70;;;;;;5065893;28;19967;-59
2024/02/19 07:30:49;;;;;;;;;;;22.70;34.60;;;;;;5058995;28;19925;-59
2024/02/19 07:33:17;;;;;;;;;;;22.70;34.70;;;;;;5061300;28;19943;-60
2024/02/19 07:35:44;;;;;;;;;;;22.80;35.00;;;;;;5059492;28;19924;-59
2024/02/19 07:38:11;;;;;;;;;;;22.80;35.20;;;;;;5064045;28;20604;-59
2024/02/19 07:40:39;;;;;;;;;;;22.80;35.20;;;;;;5063000;28;19974;-59
2024/02/19 07:43:06;;;;;;;;;;;22.90;35.30;;;;;;5059529;28;20023;-61
2024/02/19 07:45:33;;;;;;;;;;;22.90;35.30;;;;;;5058219;28;19939;-59
2024/02/19 07:48:00;;;;;;;;;;;23.00;35.30;;;;;;5060721;28;20007;-60
2024/02/19 07:50:27;;;;;;;;;;;23.10;35.40;;;;;;5062718;28;19931;-59
2024/02/19 07:52:54;;;;;;;;;;;23.10;35.30;;;;;;5059478;28;19936;-61
2024/02/19 07:55:21;;;;;;;;;;;23.20;35.30;;;;;;5059033;28;19925;-60
2024/02/19 07:57:48;;;;;;;;;;;23.30;35.30;;;;;;5085994;27;19936;-60
2024/02/19 08:00:16;;;;;;;;;;;23.30;35.10;;;;;;5059048;28;19931;-59
2024/02/19 08:02:43;;;;;;;;;;;23.30;35.00;;;;;;5063160;28;19963;-54
2024/02/19 08:05:11;;;;;;;;;;;23.40;35.10;;;;;;5042748;28;19932;-57
2024/02/19 08:07:38;;;;;;;;;;;23.40;35.00;;;;;;5062543;28;19932;-57
2024/02/19 08:10:05;;;;;;;;;;;23.40;35.10;;;;;;5064752;28;19932;-56
2024/02/19 08:12:34;;;;;;;;;;;23.40;35.20;;;;;;5061187;28;20369;-55
2024/02/19 08:15:06;;;;;;;;;;;23.50;35.20;;;;;;5067310;28;19962;-59
2024/02/19 08:17:33;;;;;;;;;;;23.50;35.10;;;;;;5069439;28;19935;-60
2024/02/19 08:20:01;;;;;;;;;;;23.60;35.10;;;;;;5062686;28;20357;-57
2024/02/19 08:22:28;;;;;;;;;;;23.60;35.10;;;;;;5069201;28;19972;-57
2024/02/19 08:24:55;;;;;;;;;;;23.60;35.10;;;;;;5063429;28;19946;-57
2024/02/19 08:27:22;;;;;;;;;;;23.70;35.00;;;;;;5067343;28;20030;-56
2024/02/19 08:29:49;;;;;;;;;;;23.70;35.00;;;;;;5066872;28;21691;-59
2024/02/19 08:32:16;;;;;;;;;;;23.70;34.80;;;;;;5074553;28;20046;-57
2024/02/19 08:34:44;;;;;;;;;;;23.80;34.90;;;;;;5062228;28;19933;-58
2024/02/19 08:37:11;;;;;;;;;;;23.90;34.90;;;;;;5065401;28;19982;-57
2024/02/19 08:39:38;;;;;;;;;;;23.90;34.90;;;;;;5066529;28;20362;-58
2024/02/19 08:42:08;;;;;;;;;;;23.90;34.90;;;;;;5064050;28;20516;-57
2024/02/19 08:44:34;;;;;;;;;;;24.00;34.70;;;;;;5068380;28;20305;-58
2024/02/19 08:47:07;;;;;;;;;;;24.10;34.60;;;;;;5103113;28;19924;-58
2024/02/19 08:49:34;;;;;;;;;;;24.10;34.50;;;;;;5069104;28;19924;-58
2024/02/19 08:52:01;;;;;;;;;;;24.10;34.30;;;;;;5068371;28;20011;-59
2024/02/19 08:54:28;;;;;;;;;;;24.20;34.30;;;;;;5070114;28;19960;-56
2024/02/19 08:56:55;;;;;;;;;;;24.20;34.10;;;;;;5062755;28;19938;-56
2024/02/19 08:59:22;;;;;;;;;;;24.30;33.90;;;;;;5061005;28;20366;-58
2024/02/19 09:01:49;;;;;;;;;;;24.30;33.90;;;;;;5062566;28;19928;-59
2024/02/19 09:04:17;;;;;;;;;;;24.40;33.90;;;;;;5063979;28;19932;-56
2024/02/19 09:06:44;;;;;;;;;;;24.40;33.80;;;;;;5092479;27;19933;-58
2024/02/19 09:09:12;;;;;;;;;;;24.50;33.80;;;;;;5066449;28;20511;-58
2024/02/19 09:11:38;;;;;;;;;;;24.50;33.70;;;;;;5067221;28;19963;-57
2024/02/19 09:14:08;;;;;;;;;;;24.50;33.70;;;;;;5069522;28;19931;-58
2024/02/19 09:16:35;;;;;;;;;;;24.60;33.70;;;;;;5070339;28;19929;-58
2024/02/19 09:19:06;;;;;;;;;;;24.60;33.70;;;;;;5069400;28;19924;-57
2024/02/19 09:21:33;;;;;;;;;;;24.70;33.70;;;;;;5064553;28;19986;-57
2024/02/19 09:24:00;;;;;;;;;;;24.70;33.60;;;;;;5066052;28;19934;-57
2024/02/19 09:26:27;;;;;;;;;;;24.70;33.40;;;;;;5062406;28;19971;-56
2024/02/19 09:28:54;;;;;;;;;;;24.80;33.40;;;;;;5066476;28;20015;-56
2024/02/19 09:31:23;;;;;;;;;;;24.80;33.30;;;;;;5064298;28;20389;-58
2024/02/19 09:33:50;;;;;;;;;;;24.90;33.50;;;;;;5066256;28;19975;-57
2024/02/19 09:36:18;;;;;;;;;;;24.90;33.40;;;;;;5066880;28;19931;-56
2024/02/19 09:38:46;;;;;;;;;;;24.90;33.40;;;;;;5094084;28;19932;-56
2024/02/19 09:41:13;;;;;;;;;;;25.00;33.40;;;;;;5066090;28;20056;-58
2024/02/19 09:43:40;;;;;;;;;;;25.00;33.10;;;;;;5065598;28;20073;-58
2024/02/19 09:46:10;;;;;;;;;;;25.10;33.10;;;;;;5064400;28;19933;-58
2024/02/19 09:48:38;;;;;;;;;;;25.10;33.10;;;;;;5062731;28;19933;-58
2024/02/19 09:51:07;;;;;;;;;;;25.20;32.70;;;;;;5063849;28;19931;-55
2024/02/19 09:53:34;;;;;;;;;;;25.30;32.60;;;;;;5066380;28;19982;-57
2024/02/19 09:56:01;;;;;;;;;;;25.40;32.60;;;;;;5061314;28;19933;-57
2024/02/19 09:58:29;;;;;;;;;;;25.40;32.50;;;;;;5065396;28;19924;-52
2024/02/19 10:00:57;;;;;;;;;;;25.50;32.40;;;;;;5067388;28;20336;-58
2024/02/19 10:03:26;;;;;;;;;;;25.50;32.30;;;;;;5071594;28;19950;-58
2024/02/19 10:05:53;;;;;;;;;;;25.50;32.90;;;;;;5067709;28;20312;-57
2024/02/19 10:08:20;;;;;;;;;;;25.50;32.40;;;;;;5068155;28;19936;-57
2024/02/19 10:10:53;;;;;;;;;;;25.50;32.40;;;;;;5070313;28;19924;-57
2024/02/19 10:13:20;;;;;;;;;;;25.50;32.40;;;;;;5069980;28;19932;-58
2024/02/19 10:15:50;;;;;;;;;;;25.50;32.50;;;;;;5067497;28;19925;-59
2024/02/19 10:18:18;;;;;;;;;;;25.50;32.40;;;;;;5065620;28;19931;-61
2024/02/19 10:20:47;;;;;;;;;;;25.50;32.50;;;;;;5063528;28;20374;-61
2024/02/19 10:23:14;;;;;;;;;;;25.50;32.50;;;;;;5069831;28;19935;-60
2024/02/19 10:25:41;;;;;;;;;;;25.50;32.50;;;;;;5060212;28;20024;-58
2024/02/19 10:28:08;;;;;;;;;;;25.50;32.40;;;;;;5062325;28;20019;-59
2024/02/19 10:30:36;;;;;;;;;;;25.50;32.30;;;;;;5062401;28;20655;-58
2024/02/19 10:33:03;;;;;;;;;;;25.50;32.30;;;;;;5067425;28;19925;-57
2024/02/19 10:35:32;;;;;;;;;;;25.40;32.30;;;;;;5065127;28;19932;-58
2024/02/19 10:37:59;;;;;;;;;;;25.40;32.20;;;;;;5063092;28;20281;-58
2024/02/19 10:40:27;;;;;;;;;;;25.40;32.20;;;;;;5072492;28;19971;-58
2024/02/19 10:42:55;;;;;;;;;;;25.50;32.20;;;;;;5070032;28;20396;-58
2024/02/19 10:45:24;;;;;;;;;;;25.50;32.10;;;;;;5068392;28;19936;-59
2024/02/19 10:47:55;;;;;;;;;;;25.50;32.00;;;;;;5065477;28;20832;-58
2024/02/19 10:50:22;;;;;;;;;;;25.50;32.00;;;;;;5063053;28;19932;-57
2024/02/19 10:52:49;;;;;;;;;;;25.50;32.00;;;;;;5068059;28;20394;-58
2024/02/19 10:55:17;;;;;;;;;;;25.50;31.90;;;;;;5073086;28;19924;-58
2024/02/19 10:57:58;;;;;;;;;;;25.50;31.80;;;;;;5068437;28;19935;-59
2024/02/19 11:00:27;;;;;;;;;;;25.50;31.70;;;;;;5070387;28;19931;-58
2024/02/19 11:03:07;;;;;;;;;;;25.60;31.70;;;;;;5073499;28;19933;-58
2024/02/19 11:05:38;;;;;;;;;;;25.60;31.80;;;;;;5072211;28;19970;-58
2024/02/19 11:08:16;;;;;;;;;;;25.50;31.60;;;;;;5067055;28;19924;-59
2024/02/19 11:10:44;;;;;;;;;;;25.50;31.60;;;;;;5071745;28;19936;-58
2024/02/19 11:13:12;;;;;;;;;;;25.60;31.70;;;;;;5069703;28;19929;-58
2024/02/19 11:15:40;;;;;;;;;;;25.60;31.60;;;;;;5068850;28;19928;-57
2024/02/19 11:18:08;;;;;;;;;;;25.60;31.70;;;;;;5065032;28;19928;-57
2024/02/19 11:20:35;;;;;;;;;;;25.60;31.60;;;;;;5068837;28;19929;-57
2024/02/19 11:23:03;;;;;;;;;;;25.60;31.50;;;;;;5065227;28;20362;-58
2024/02/19 11:25:32;;;;;;;;;;;25.70;31.70;;;;;;5065608;28;20211;-57
2024/02/19 11:27:59;;;;;;;;;;;25.70;31.70;;;;;;5068696;28;19924;-57
2024/02/19 11:30:26;;;;;;;;;;;25.70;31.70;;;;;;5062325;28;19967;-57
2024/02/19 11:33:00;;;;;;;;;;;25.70;31.70;;;;;;5070760;28;19928;-57
2024/02/19 11:35:27;;;;;;;;;;;25.70;31.60;;;;;;5067722;28;20018;-57
2024/02/19 11:37:54;;;;;;;;;;;25.70;31.50;;;;;;5065768;28;19928;-57
2024/02/19 11:40:21;;;;;;;;;;;25.80;31.50;;;;;;5066063;28;19977;-54
2024/02/19 11:42:49;;;;;;;;;;;25.80;31.60;;;;;;5065832;28;19925;-56
2024/02/19 11:45:16;;;;;;;;;;;25.80;31.50;;;;;;5063193;28;20290;-57
2024/02/19 11:47:44;;;;;;;;;;;25.80;31.50;;;;;;5064755;28;19928;-58
2024/02/19 11:50:15;;;;;;;;;;;25.80;31.60;;;;;;5062316;28;20046;-59
2024/02/19 11:52:44;;;;;;;;;;;25.80;31.60;;;;;;5063489;28;20007;-58
2024/02/19 11:55:19;;;;;;;;;;;25.80;31.50;;;;;;5061904;28;19928;-58
2024/02/19 11:57:50;;;;;;;;;;;25.80;31.60;;;;;;5070893;28;19972;-59
2024/02/19 12:00:17;;;;;;;;;;;25.80;31.60;;;;;;5070490;28;19978;-59
2024/02/19 12:02:48;;;;;;;;;;;25.80;31.50;;;;;;5059612;28;19977;-58
2024/02/19 12:05:16;;;;;;;;;;;25.80;31.60;;;;;;5094230;28;19928;-58
2024/02/19 12:07:43;;;;;;;;;;;25.80;31.70;;;;;;5066157;28;19985;-58
2024/02/19 12:10:11;;;;;;;;;;;25.80;31.50;;;;;;5061337;28;19925;-59
2024/02/19 12:12:39;;;;;;;;;;;25.90;31.70;;;;;;5062185;28;19971;-58
2024/02/19 12:15:10;;;;;;;;;;;25.90;31.80;;;;;;5067455;28;19986;-59
2024/02/19 12:17:39;;;;;;;;;;;25.90;31.60;;;;;;5063010;28;19928;-58
2024/02/19 12:20:07;;;;;;;;;;;25.90;32.10;;;;;;5064006;28;19925;-58
2024/02/19 12:22:34;;;;;;;;;;;26.00;31.60;;;;;;5063696;28;19932;-58
2024/02/19 12:25:01;;;;;;;;;;;26.00;31.50;;;;;;5059140;28;19929;-58
2024/02/19 12:27:28;;;;;;;;;;;26.00;31.40;;;;;;5065474;28;19985;-59
2024/02/19 12:29:56;;;;;;;;;;;26.00;31.40;;;;;;5059407;28;20484;-58
2024/02/19 12:32:23;;;;;;;;;;;26.10;31.40;;;;;;5063727;28;19933;-58
2024/02/19 12:34:50;;;;;;;;;;;26.10;31.50;;;;;;5070019;28;19925;-58
2024/02/19 12:37:18;;;;;;;;;;;26.10;31.40;;;;;;5064757;28;19925;-58
2024/02/19 12:39:45;;;;;;;;;;;26.10;31.50;;;;;;5060215;28;19936;-58
2024/02/19 12:42:13;;;;;;;;;;;26.10;31.50;;;;;;5056097;28;20013;-58
2024/02/19 12:44:40;;;;;;;;;;;26.10;31.50;;;;;;5058761;28;19929;-58
2024/02/19 12:47:07;;;;;;;;;;;26.10;31.40;;;;;;5056612;28;19939;-59
2024/02/19 12:49:34;;;;;;;;;;;26.10;31.40;;;;;;5057529;28;19932;-59
2024/02/19 12:52:04;;;;;;;;;;;26.10;31.30;;;;;;5059907;28;19959;-60
2024/02/19 12:54:31;;;;;;;;;;;26.10;31.40;;;;;;5060376;28;19964;-60
2024/02/19 12:56:59;;;;;;;;;;;26.10;31.40;;;;;;5097509;28;20035;-59
2024/02/19 12:59:26;;;;;;;;;;;26.10;31.90;;;;;;5062765;28;19924;-63
2024/02/19 13:01:53;;;;;;;;;;;26.10;31.40;;;;;;5065750;28;20302;-58
2024/02/19 13:04:20;;;;;;;;;;;26.10;31.40;;;;;;5065654;28;19928;-59
2024/02/19 13:06:50;;;;;;;;;;;26.10;31.30;;;;;;5069214;28;20297;-60
2024/02/19 13:09:18;;;;;;;;;;;26.10;31.50;;;;;;5066487;28;20377;-61
2024/02/19 13:11:45;;;;;;;;;;;26.10;31.60;;;;;;5062206;28;20393;-59
2024/02/19 13:14:11;;;;;;;;;;;26.10;31.60;;;;;;5066804;28;20420;-58
2024/02/19 13:16:39;;;;;;;;;;;26.10;31.70;;;;;;5065876;28;19929;-57
2024/02/19 13:19:06;;;;;;;;;;;26.10;31.80;;;;;;5069477;28;19968;-58
2024/02/19 13:21:34;;;;;;;;;;;26.10;31.70;;;;;;5065685;28;20019;-57
2024/02/19 13:24:01;;;;;;;;;;;26.10;31.90;;;;;;5064559;28;19931;-58
2024/02/19 13:26:28;;;;;;;;;;;26.10;31.80;;;;;;5068628;28;19928;-57
2024/02/19 13:28:55;;;;;;;;;;;26.10;31.70;;;;;;5063080;28;20464;-59
2024/02/19 13:31:22;;;;;;;;;;;26.10;31.90;;;;;;5092993;28;20533;-58
2024/02/19 13:33:49;;;;;;;;;;;26.10;32.10;;;;;;5066908;28;20031;-60
2024/02/19 13:36:16;;;;;;;;;;;26.10;32.00;;;;;;5066304;28;19929;-58
2024/02/19 13:38:45;;;;;;;;;;;26.10;32.10;;;;;;5063301;28;19932;-59
2024/02/19 13:41:13;;;;;;;;;;;26.10;32.00;;;;;;5066429;28;20114;-58
2024/02/19 13:43:44;;;;;;;;;;;26.10;31.90;;;;;;5068396;28;19936;-58
2024/02/19 13:46:12;;;;;;;;;;;26.00;31.90;;;;;;5063538;28;20496;-58
2024/02/19 13:48:39;;;;;;;;;;;26.00;31.90;;;;;;5066460;28;19932;-57
2024/02/19 13:51:07;;;;;;;;;;;26.00;31.80;;;;;;5067631;28;20043;-57
2024/02/19 13:53:34;;;;;;;;;;;26.00;31.90;;;;;;5068581;28;19975;-56
2024/02/19 13:56:02;;;;;;;;;;;26.00;31.90;;;;;;5070103;28;20333;-59
2024/02/19 13:58:29;;;;;;;;;;;26.00;32.00;;;;;;5063089;28;19970;-58
2024/02/19 14:01:04;;;;;;;;;;;26.00;32.00;;;;;;5060347;28;19936;-59
2024/02/19 14:03:31;;;;;;;;;;;26.00;31.90;;;;;;5056844;28;19939;-58
2024/02/19 14:05:58;;;;;;;;;;;26.00;31.90;;;;;;5071722;28;19936;-58
2024/02/19 14:08:26;;;;;;;;;;;26.00;31.90;;;;;;5072885;28;20377;-56
2024/02/19 14:10:54;;;;;;;;;;;26.00;31.70;;;;;;5059370;28;19977;-58
2024/02/19 14:13:21;;;;;;;;;;;26.00;31.90;;;;;;5058510;28;20045;-59
2024/02/19 14:15:48;;;;;;;;;;;26.00;31.80;;;;;;5058894;28;20279;-58
2024/02/19 14:18:15;;;;;;;;;;;25.90;31.70;;;;;;5054079;28;19932;-59